Time;durP1;ratioP1;P1;durP2;ratioP2;P2;SDS_P1;SDS_P2;PMS_P1;PMS_P2;Temp;Humidity;BMP_temperature;BMP_pressure;BME280_temperature;BME280_humidity;BME280_pressure;Samples;Min_cycle;Max_cycle;Signal;HPM_P1;HPM_P2
2022/07/04 00:00:35;;;;;;;8.90;4.00;;;;;21.86;97562.40;;;;110645;1253;41145;-68
2022/07/04 00:03:05;;;;;;;7.80;3.80;;;;;21.80;97565.60;;;;110510;1253;41625;-69
2022/07/04 00:05:36;;;;;;;8.10;3.80;;;;;21.80;97563.20;;;;110503;1253;41643;-67
2022/07/04 00:08:06;;;;;;;8.40;3.40;;;;;21.80;97566.20;;;;110499;1253;41160;-68
2022/07/04 00:10:36;;;;;;;9.20;3.70;;;;;21.70;97567.60;;;;110428;1254;41379;-68
2022/07/04 00:13:05;;;;;;;8.60;3.40;;;;;21.60;97565.00;;;;110377;1254;41607;-69
2022/07/04 00:15:35;;;;;;;7.70;3.70;;;;;21.54;97566.20;;;;110478;1253;41382;-67
2022/07/04 00:18:05;;;;;;;8.10;3.40;;;;;21.50;97564.20;;;;110516;1253;41977;-69
2022/07/04 00:20:35;;;;;;;8.30;3.10;;;;;21.50;97568.80;;;;110495;1255;41555;-69
2022/07/04 00:23:05;;;;;;;8.20;3.60;;;;;21.44;97573.40;;;;110715;1253;41370;-68
2022/07/04 00:25:35;;;;;;;8.20;3.60;;;;;21.40;97575.80;;;;110529;1253;42411;-69
2022/07/04 00:28:04;;;;;;;9.00;3.40;;;;;21.40;97573.20;;;;110533;1254;41737;-69
2022/07/04 00:30:34;;;;;;;9.50;3.90;;;;;21.30;97579.80;;;;110392;1255;41618;-69
2022/07/04 00:33:04;;;;;;;9.60;4.40;;;;;21.30;97574.40;;;;110262;1256;41162;-68
2022/07/04 00:35:33;;;;;;;8.50;3.70;;;;;21.30;97577.00;;;;110285;1255;41718;-67
2022/07/04 00:38:03;;;;;;;9.30;4.50;;;;;21.30;97578.20;;;;110379;1253;41273;-68
2022/07/04 00:40:33;;;;;;;8.90;4.10;;;;;21.20;97573.80;;;;110290;1253;41267;-68
2022/07/04 00:43:04;;;;;;;13.70;4.30;;;;;21.08;97575.60;;;;110458;1253;42397;-68
2022/07/04 00:45:34;;;;;;;10.30;4.10;;;;;21.00;97577.20;;;;110372;1254;41136;-65
2022/07/04 00:48:04;;;;;;;11.00;4.00;;;;;20.90;97577.60;;;;110679;1253;41134;-69
2022/07/04 00:50:35;;;;;;;9.50;4.00;;;;;20.90;97574.00;;;;110425;1254;41155;-69
2022/07/04 00:53:06;;;;;;;8.50;3.40;;;;;20.88;97573.40;;;;110441;1254;41266;-68
2022/07/04 00:55:36;;;;;;;8.30;4.10;;;;;20.90;97568.20;;;;110343;1254;41258;-71
2022/07/04 00:58:07;;;;;;;12.30;5.10;;;;;20.90;97573.00;;;;110451;1253;41410;-68
2022/07/04 01:00:38;;;;;;;8.60;3.80;;;;;20.78;97570.20;;;;110525;1253;41162;-69
2022/07/04 01:03:08;;;;;;;8.70;4.20;;;;;20.76;97569.40;;;;110615;1253;41619;-66
2022/07/04 01:05:38;;;;;;;10.40;4.40;;;;;20.80;97568.40;;;;110425;1253;41174;-68
2022/07/04 01:08:09;;;;;;;8.10;3.90;;;;;20.80;97559.60;;;;110378;1254;42362;-69
2022/07/04 01:10:38;;;;;;;8.30;3.90;;;;;20.80;97559.60;;;;110430;1254;41152;-68
2022/07/04 01:13:08;;;;;;;8.80;3.80;;;;;20.80;97556.00;;;;110394;1253;41615;-68
2022/07/04 01:15:38;;;;;;;8.40;4.20;;;;;20.74;97559.60;;;;110402;1253;41162;-69
2022/07/04 01:18:08;;;;;;;9.30;3.80;;;;;20.78;97560.60;;;;110351;1254;41267;-69
2022/07/04 01:20:38;;;;;;;8.60;3.70;;;;;20.72;97558.20;;;;110272;1253;41306;-69
2022/07/04 01:23:08;;;;;;;8.00;3.40;;;;;20.70;97558.80;;;;110442;1253;42176;-68
2022/07/04 01:25:38;;;;;;;7.50;3.20;;;;;20.70;97560.20;;;;110350;1254;41160;-66
2022/07/04 01:28:08;;;;;;;9.80;4.50;;;;;20.70;97558.00;;;;110426;1255;42358;-68
2022/07/04 01:30:38;;;;;;;;;;;;;20.60;97560.00;;;;110427;1253;41193;-67
2022/07/04 01:33:08;;;;;;;8.30;4.10;;;;;20.44;97558.40;;;;110452;1253;41255;-69
2022/07/04 01:35:38;;;;;;;8.50;3.50;;;;;20.40;97562.40;;;;110473;1253;41666;-68
2022/07/04 01:38:08;;;;;;;8.50;3.60;;;;;20.40;97560.80;;;;110425;1254;41172;-67
2022/07/04 01:40:39;;;;;;;10.90;5.10;;;;;20.40;97563.60;;;;110524;1253;41138;-67
2022/07/04 01:43:09;;;;;;;10.70;5.10;;;;;20.30;97562.60;;;;110402;1253;41168;-67
2022/07/04 01:45:39;;;;;;;11.20;5.10;;;;;20.20;97562.20;;;;110608;1254;41161;-68
2022/07/04 01:48:11;;;;;;;11.30;4.70;;;;;20.20;97568.20;;;;110414;1255;41254;-67
2022/07/04 01:50:40;;;;;;;8.60;4.20;;;;;20.20;97564.60;;;;110291;1255;41260;-68
2022/07/04 01:53:11;;;;;;;10.30;4.40;;;;;20.30;97562.60;;;;110317;1253;41139;-67
2022/07/04 01:55:41;;;;;;;8.30;4.40;;;;;20.30;97560.40;;;;110441;1254;41962;-68
2022/07/04 01:58:12;;;;;;;11.20;5.00;;;;;20.28;97562.20;;;;110376;1254;41169;-68
2022/07/04 02:03:30;;;;;;;8.80;4.60;;;;;20.20;97567.80;;;;110307;1256;41147;-69
2022/07/04 02:06:00;;;;;;;11.20;4.90;;;;;20.02;97572.20;;;;110307;1254;41157;-69
2022/07/04 02:09:14;;;;;;;;;;;;;20.00;97575.00;;;;110356;1253;42003;-66
2022/07/04 02:11:21;;;;;;;8.80;3.40;;;;;20.00;97575.60;;;;110360;1254;41149;-68
2022/07/04 02:13:51;;;;;;;8.00;3.70;;;;;20.00;97576.20;;;;110566;1250;41552;-67
2022/07/04 02:16:21;;;;;;;8.40;3.70;;;;;20.10;97578.40;;;;110304;1253;41482;-66
2022/07/04 02:18:51;;;;;;;8.10;3.80;;;;;20.10;97574.60;;;;110455;1254;41360;-67
2022/07/04 02:21:22;;;;;;;8.00;3.80;;;;;20.20;97575.60;;;;110487;1253;41500;-67
2022/07/04 02:23:52;;;;;;;7.80;3.70;;;;;20.22;97576.20;;;;110416;1254;41163;-68
2022/07/04 02:26:23;;;;;;;11.70;4.50;;;;;20.30;97572.20;;;;110459;1253;42371;-67
2022/07/04 02:28:53;;;;;;;8.00;4.00;;;;;20.30;97574.20;;;;110297;1254;41416;-67
2022/07/04 02:31:23;;;;;;;9.00;3.60;;;;;20.40;97576.20;;;;110316;1253;41250;-69
2022/07/04 02:33:54;;;;;;;10.60;4.40;;;;;20.40;97577.40;;;;110541;1253;41165;-68
2022/07/04 02:36:25;;;;;;;7.80;4.00;;;;;20.40;97575.60;;;;110497;1254;42376;-70
2022/07/04 02:38:55;;;;;;;7.40;3.30;;;;;20.42;97575.40;;;;110654;1253;41541;-66
2022/07/04 02:41:25;;;;;;;8.40;3.60;;;;;20.46;97576.20;;;;110541;1253;41720;-68
2022/07/04 02:43:56;;;;;;;7.40;3.30;;;;;20.50;97575.40;;;;110432;1253;40777;-66
2022/07/04 02:46:27;;;;;;;9.20;3.50;;;;;20.50;97574.80;;;;110421;1255;41391;-66
2022/07/04 02:48:57;;;;;;;8.90;4.40;;;;;20.50;97575.60;;;;110472;1253;41251;-67
2022/07/04 02:51:27;;;;;;;10.20;5.20;;;;;20.50;97575.20;;;;110433;1254;41748;-67
2022/07/04 02:53:57;;;;;;;8.70;3.70;;;;;20.40;97576.00;;;;110142;1256;41777;-66
2022/07/04 02:56:27;;;;;;;8.60;3.70;;;;;20.40;97577.20;;;;110284;1254;41270;-66
2022/07/04 02:58:58;;;;;;;7.70;3.30;;;;;20.40;97576.20;;;;110330;1256;42206;-67
2022/07/04 03:01:28;;;;;;;7.90;3.50;;;;;20.40;97577.00;;;;110474;1253;42043;-66
2022/07/04 03:04:00;;;;;;;9.40;4.20;;;;;20.40;97573.80;;;;110298;1255;41904;-66
2022/07/04 03:06:30;;;;;;;9.00;4.30;;;;;20.42;97575.20;;;;110363;1256;41460;-66
2022/07/04 03:09:00;;;;;;;8.50;3.90;;;;;20.50;97573.60;;;;110421;1253;41139;-67
2022/07/04 03:11:30;;;;;;;8.40;3.60;;;;;20.50;97572.20;;;;110359;1254;41176;-67
2022/07/04 03:14:00;;;;;;;8.70;4.00;;;;;20.50;97573.40;;;;110420;1255;41193;-68
2022/07/04 03:16:33;;;;;;;10.40;5.30;;;;;20.56;97575.20;;;;110295;1253;41596;-68
2022/07/04 03:19:04;;;;;;;;;;;;;20.60;97579.40;;;;110293;1254;41208;-68
2022/07/04 03:21:34;;;;;;;9.70;4.60;;;;;20.60;97576.60;;;;110236;1256;41159;-68
2022/07/04 03:24:04;;;;;;;11.80;5.20;;;;;20.60;97571.60;;;;110307;1257;41176;-68
2022/07/04 03:26:34;;;;;;;8.90;4.30;;;;;20.60;97567.20;;;;110456;1253;41160;-68
2022/07/04 03:29:04;;;;;;;8.00;3.50;;;;;20.60;97568.20;;;;110340;1256;41153;-67
2022/07/04 03:31:34;;;;;;;8.10;3.80;;;;;20.60;97563.80;;;;110482;1254;41713;-67
2022/07/04 03:34:04;;;;;;;8.00;3.40;;;;;20.60;97561.60;;;;110326;1253;41370;-66
2022/07/04 03:36:33;;;;;;;7.90;3.40;;;;;20.70;97565.00;;;;110458;1253;42121;-66
2022/07/04 03:39:03;;;;;;;9.10;3.60;;;;;20.70;97570.60;;;;110165;1256;41153;-66
2022/07/04 03:41:33;;;;;;;7.50;3.30;;;;;20.80;97574.40;;;;110385;1254;41137;-67
2022/07/04 03:44:03;;;;;;;8.60;4.60;;;;;20.80;97575.80;;;;110439;1253;41133;-66
2022/07/04 03:46:33;;;;;;;11.30;5.80;;;;;20.90;97583.80;;;;110149;1256;41259;-67
2022/07/04 03:49:03;;;;;;;10.50;5.20;;;;;20.98;97590.00;;;;110275;1256;42343;-68
2022/07/04 03:51:34;;;;;;;10.40;4.90;;;;;20.92;97588.60;;;;110445;1254;41804;-67
2022/07/04 03:54:04;;;;;;;;;;;;;21.00;97589.00;;;;110461;1254;41282;-67
2022/07/04 03:56:36;;;;;;;8.80;3.90;;;;;21.00;97585.80;;;;110466;1254;41428;-68
2022/07/04 03:59:13;;;;;;;7.40;3.70;;;;;21.10;97585.20;;;;110360;1256;41625;-68
2022/07/04 04:01:49;;;;;;;11.00;4.20;;;;;21.20;97581.00;;;;110394;1253;41716;-68
2022/07/04 04:07:15;;;;;;;9.60;4.80;;;;;21.40;97581.00;;;;110368;1254;41510;-67
2022/07/04 04:09:56;;;;;;;10.30;5.00;;;;;21.50;97583.60;;;;110360;1255;41166;-67
2022/07/04 04:12:33;;;;;;;11.20;5.50;;;;;21.54;97584.00;;;;110449;1254;41613;-66
2022/07/04 04:15:14;;;;;;;15.60;5.40;;;;;21.60;97583.40;;;;110487;1253;41632;-67
2022/07/04 04:17:49;;;;;;;10.80;4.80;;;;;21.60;97579.40;;;;110502;1253;41179;-68
2022/07/04 04:20:18;;;;;;;11.00;4.70;;;;;21.64;97584.80;;;;110246;1254;41163;-68
2022/07/04 04:22:49;;;;;;;9.30;5.00;;;;;21.70;97584.20;;;;110506;1253;41260;-69
2022/07/04 04:25:19;;;;;;;8.70;4.30;;;;;21.80;97589.60;;;;110523;1253;41609;-69
2022/07/04 04:27:49;;;;;;;9.40;4.70;;;;;21.90;97590.60;;;;110527;1253;41161;-68
2022/07/04 04:30:19;;;;;;;9.00;4.50;;;;;22.04;97578.80;;;;110497;1254;41121;-67
2022/07/04 04:32:48;;;;;;;10.50;4.10;;;;;23.04;97563.40;;;;110449;1253;41280;-68
2022/07/04 04:35:19;;;;;;;8.70;4.50;;;;;23.98;97565.60;;;;110364;1254;41617;-68
2022/07/04 04:37:48;;;;;;;12.90;5.60;;;;;24.20;97580.60;;;;110510;1254;41150;-68
2022/07/04 04:40:18;;;;;;;11.50;5.50;;;;;24.74;97562.80;;;;110406;1253;41317;-69
2022/07/04 04:42:48;;;;;;;11.20;5.70;;;;;25.64;97563.40;;;;110514;1253;41520;-70
2022/07/04 04:45:18;;;;;;;10.30;5.00;;;;;26.38;97565.00;;;;110653;1253;41536;-66
2022/07/04 04:47:48;;;;;;;8.50;4.30;;;;;27.14;97558.80;;;;110466;1253;41782;-68
2022/07/04 04:50:19;;;;;;;10.30;4.00;;;;;28.00;97556.00;;;;110511;1253;41479;-68
2022/07/04 04:52:48;;;;;;;8.60;3.80;;;;;28.60;97561.00;;;;110458;1254;41278;-67
2022/07/04 04:55:18;;;;;;;8.90;4.30;;;;;29.20;97560.80;;;;110507;1253;41911;-67
2022/07/04 04:57:48;;;;;;;8.80;4.60;;;;;29.06;97575.80;;;;110489;1254;42121;-68
2022/07/04 05:00:17;;;;;;;9.60;4.60;;;;;28.26;97580.20;;;;110534;1253;41599;-68
2022/07/04 05:02:47;;;;;;;12.40;4.00;;;;;27.56;97583.60;;;;110462;1252;41252;-68
2022/07/04 05:05:17;;;;;;;11.60;5.00;;;;;27.10;97583.60;;;;110497;1253;41649;-67
2022/07/04 05:07:48;;;;;;;11.40;4.80;;;;;26.70;97580.80;;;;110502;1253;41270;-66
2022/07/04 05:10:27;;;;;;;10.30;4.80;;;;;26.00;97583.20;;;;110348;1254;41256;-68
2022/07/04 05:13:00;;;;;;;10.10;4.40;;;;;25.66;97585.60;;;;110495;1255;41159;-68
2022/07/04 05:15:30;;;;;;;9.20;3.90;;;;;25.60;97587.60;;;;110503;1254;41492;-69
2022/07/04 05:17:59;;;;;;;8.80;4.20;;;;;25.64;97579.80;;;;110475;1254;41817;-68
2022/07/04 05:20:28;;;;;;;9.30;4.00;;;;;26.14;97564.00;;;;110456;1253;41712;-68
2022/07/04 05:22:58;;;;;;;8.20;3.90;;;;;27.00;97580.40;;;;110394;1253;41217;-68
2022/07/04 05:25:28;;;;;;;9.60;4.00;;;;;27.40;97587.20;;;;110432;1254;41174;-70
2022/07/04 05:27:59;;;;;;;8.50;4.20;;;;;27.20;97585.20;;;;110581;1254;42137;-68
2022/07/04 05:30:28;;;;;;;8.90;4.50;;;;;26.90;97585.00;;;;110531;1253;41391;-68
2022/07/04 05:32:58;;;;;;;9.30;4.30;;;;;27.00;97588.80;;;;110506;1253;41232;-68
2022/07/04 05:35:29;;;;;;;9.00;3.90;;;;;26.74;97592.40;;;;110392;1253;41610;-68
2022/07/04 05:37:58;;;;;;;8.30;3.60;;;;;26.80;97587.00;;;;110393;1254;42076;-69
2022/07/04 05:40:29;;;;;;;11.40;3.80;;;;;26.70;97586.20;;;;110447;1254;41341;-66
2022/07/04 05:42:59;;;;;;;7.60;3.60;;;;;26.50;97582.80;;;;110506;1253;41257;-68
2022/07/04 05:45:28;;;;;;;13.00;4.50;;;;;26.54;97580.80;;;;110569;1253;41471;-69
2022/07/04 05:47:58;;;;;;;8.40;3.90;;;;;26.60;97583.00;;;;110493;1253;42123;-69
2022/07/04 05:50:27;;;;;;;7.60;3.60;;;;;26.70;97579.40;;;;110518;1253;41276;-68
2022/07/04 05:53:01;;;;;;;9.70;3.90;;;;;26.98;97574.40;;;;110503;1255;42570;-68
2022/07/04 05:55:30;;;;;;;7.60;3.80;;;;;27.24;97573.20;;;;110207;1256;41734;-67
2022/07/04 05:58:00;;;;;;;8.60;4.00;;;;;27.50;97573.20;;;;110265;1256;41270;-68
2022/07/04 06:00:29;;;;;;;11.60;3.80;;;;;27.52;97575.20;;;;110511;1254;41904;-68
2022/07/04 06:02:59;;;;;;;9.00;3.50;;;;;27.60;97574.00;;;;110484;1253;41468;-67
2022/07/04 06:05:29;;;;;;;8.80;3.40;;;;;27.56;97578.40;;;;110500;1253;41168;-67
2022/07/04 06:08:01;;;;;;;7.10;3.30;;;;;27.50;97579.40;;;;110430;1254;42536;-68
2022/07/04 06:10:33;;;;;;;8.60;3.60;;;;;27.50;97576.40;;;;110426;1254;41320;-68
2022/07/04 06:13:02;;;;;;;8.20;3.70;;;;;27.50;97582.00;;;;110532;1253;41266;-69
2022/07/04 06:15:36;;;;;;;7.60;3.50;;;;;27.40;97579.80;;;;110508;1253;41609;-68
2022/07/04 06:18:05;;;;;;;9.70;3.50;;;;;27.40;97578.00;;;;110520;1253;41470;-69
2022/07/04 06:20:35;;;;;;;9.60;3.80;;;;;27.40;97575.40;;;;110484;1254;41270;-68
2022/07/04 06:23:04;;;;;;;10.00;4.10;;;;;27.40;97577.60;;;;110496;1253;41795;-68
2022/07/04 06:25:34;;;;;;;9.00;4.70;;;;;27.18;97572.80;;;;110549;1253;41610;-67
2022/07/04 06:28:04;;;;;;;10.90;4.10;;;;;26.96;97569.40;;;;110283;1256;41163;-68
2022/07/04 06:30:33;;;;;;;9.00;4.60;;;;;26.70;97575.20;;;;110402;1255;42130;-68
2022/07/04 06:33:04;;;;;;;10.10;4.50;;;;;26.56;97572.00;;;;110553;1253;41568;-68
2022/07/04 06:35:45;;;;;;;10.30;4.40;;;;;26.50;97570.60;;;;110661;1253;41455;-68
2022/07/04 06:38:19;;;;;;;8.80;4.10;;;;;26.52;97573.80;;;;110616;1254;41257;-68
2022/07/04 06:40:55;;;;;;;8.50;4.40;;;;;26.60;97572.80;;;;110635;1253;41159;-68
2022/07/04 06:43:31;;;;;;;7.90;3.60;;;;;26.60;97578.20;;;;110637;1253;41186;-68
2022/07/04 06:46:00;;;;;;;9.30;3.40;;;;;26.80;97575.00;;;;110691;1253;41253;-70
2022/07/04 06:48:29;;;;;;;7.70;3.60;;;;;27.10;97573.60;;;;110508;1254;41904;-67
2022/07/04 06:50:58;;;;;;;9.30;4.10;;;;;27.30;97573.60;;;;110492;1253;41879;-69
2022/07/04 06:53:27;;;;;;;8.60;4.10;;;;;27.42;97571.40;;;;110486;1255;41305;-68
2022/07/04 06:55:57;;;;;;;8.70;3.80;;;;;27.60;97567.80;;;;110405;1256;41154;-66
2022/07/04 06:58:27;;;;;;;9.70;3.60;;;;;27.90;97563.80;;;;110468;1253;41147;-68
2022/07/04 07:00:56;;;;;;;9.30;3.80;;;;;28.22;97563.40;;;;110489;1253;41196;-68
2022/07/04 07:03:27;;;;;;;8.40;3.60;;;;;28.86;97559.00;;;;110503;1252;41144;-68
2022/07/04 07:05:58;;;;;;;10.00;4.30;;;;;29.90;97565.40;;;;110454;1256;41272;-69
2022/07/04 07:08:30;;;;;;;9.50;4.00;;;;;30.90;97566.20;;;;110596;1254;41297;-67
2022/07/04 07:11:12;;;;;;;10.70;3.90;;;;;31.00;97568.60;;;;110514;1253;41480;-69
2022/07/04 07:13:44;;;;;;;7.10;3.30;;;;;31.08;97566.80;;;;110388;1254;41164;-67
2022/07/04 07:16:16;;;;;;;9.90;4.10;;;;;31.30;97562.20;;;;110525;1253;41496;-69
2022/07/04 07:18:46;;;;;;;8.90;4.00;;;;;31.26;97561.00;;;;110539;1253;42226;-68
2022/07/04 07:21:15;;;;;;;8.30;4.00;;;;;30.86;97562.00;;;;110488;1253;41799;-70
2022/07/04 07:23:44;;;;;;;8.20;3.70;;;;;30.52;97551.80;;;;110647;1254;41693;-69
2022/07/04 07:26:13;;;;;;;11.10;4.80;;;;;30.60;97550.80;;;;110675;1252;41252;-71
2022/07/04 07:28:43;;;;;;;10.00;4.10;;;;;30.50;97556.60;;;;110214;1254;352203;-69
2022/07/04 07:31:12;;;;;;;7.80;3.60;;;;;30.50;97556.60;;;;110633;1253;41165;-70
2022/07/04 07:33:41;;;;;;;7.80;3.60;;;;;30.50;97555.60;;;;110626;1253;42583;-68
2022/07/04 07:36:10;;;;;;;8.10;3.90;;;;;30.80;97553.40;;;;110417;1256;41167;-69
2022/07/04 07:38:39;;;;;;;9.10;4.00;;;;;30.80;97555.40;;;;110340;1254;41165;-70
2022/07/04 07:41:10;;;;;;;9.40;3.70;;;;;30.90;97555.00;;;;110447;1253;41522;-68
2022/07/04 07:43:40;;;;;;;9.20;3.50;;;;;30.70;97553.80;;;;110395;1253;41607;-69
2022/07/04 07:46:09;;;;;;;9.60;3.80;;;;;30.76;97548.40;;;;110462;1253;41706;-67
2022/07/04 07:48:38;;;;;;;7.70;3.60;;;;;30.90;97546.80;;;;110527;1253;41275;-69
2022/07/04 07:51:10;;;;;;;13.60;3.80;;;;;31.20;97551.20;;;;110598;1254;41518;-69
2022/07/04 07:53:40;;;;;;;10.00;3.80;;;;;31.46;97544.00;;;;110684;1253;41153;-69
2022/07/04 07:56:29;;;;;;;12.10;4.60;;;;;31.70;97541.80;;;;110619;1253;41946;-69
2022/07/04 07:58:57;;;;;;;8.40;3.80;;;;;31.54;97542.20;;;;110558;1254;41158;-69
2022/07/04 08:01:27;;;;;;;8.50;3.80;;;;;31.50;97543.00;;;;110629;1253;41606;-69
2022/07/04 08:06:50;;;;;;;10.00;4.30;;;;;31.70;97538.60;;;;110611;1252;41160;-69
2022/07/04 08:09:40;;;;;;;10.20;4.80;;;;;31.48;97538.60;;;;110442;1253;42145;-69
2022/07/04 08:12:09;;;;;;;9.00;3.70;;;;;30.94;97542.20;;;;110465;1252;41590;-71
2022/07/04 08:14:38;;;;;;;6.90;3.20;;;;;30.80;97540.40;;;;110332;1253;41169;-69
2022/07/04 08:17:10;;;;;;;9.70;3.90;;;;;31.10;97543.40;;;;110643;1251;41386;-69
2022/07/04 08:19:40;;;;;;;8.90;4.00;;;;;31.26;97540.40;;;;110649;1253;41137;-69
2022/07/04 08:22:09;;;;;;;10.00;4.30;;;;;31.30;97538.20;;;;110566;1253;41153;-69
2022/07/04 08:24:44;;;;;;;8.80;3.30;;;;;31.36;97534.80;;;;110505;1253;41765;-70
2022/07/04 08:27:14;;;;;;;9.40;4.20;;;;;31.58;97540.60;;;;110373;1253;41270;-69
2022/07/04 08:29:43;;;;;;;9.10;4.50;;;;;31.80;97542.20;;;;110513;1251;41140;-69
2022/07/04 08:32:12;;;;;;;8.40;4.00;;;;;31.90;97540.40;;;;110540;1253;42384;-67
2022/07/04 08:34:42;;;;;;;9.20;4.40;;;;;31.70;97533.60;;;;110636;1253;41151;-68
2022/07/04 08:37:11;;;;;;;9.60;4.10;;;;;31.74;97532.00;;;;110745;1252;42406;-69
2022/07/04 08:39:40;;;;;;;9.80;5.30;;;;;31.90;97534.20;;;;110694;1251;41632;-70
2022/07/04 08:42:16;;;;;;;12.70;5.10;;;;;32.18;97534.60;;;;110703;1253;41159;-68
2022/07/04 08:44:50;;;;;;;9.30;4.20;;;;;32.10;97536.60;;;;110538;1253;41272;-67
2022/07/04 08:47:21;;;;;;;9.90;4.40;;;;;32.10;97535.20;;;;110484;1253;41596;-68
2022/07/04 08:50:02;;;;;;;10.00;4.00;;;;;32.30;97533.60;;;;110565;1253;41161;-68
2022/07/04 08:52:40;;;;;;;11.40;3.90;;;;;32.28;97536.00;;;;110518;1253;42094;-70
2022/07/04 09:00:46;;;;;;;8.70;3.90;;;;;32.50;97538.00;;;;110552;1253;42406;-69
2022/07/04 09:03:16;;;;;;;11.80;4.00;;;;;32.90;97535.20;;;;110678;1253;41394;-69
2022/07/04 09:05:45;;;;;;;8.10;3.60;;;;;33.24;97528.80;;;;110583;1253;41608;-69
2022/07/04 09:08:14;;;;;;;6.80;3.20;;;;;33.06;97531.40;;;;110667;1253;41261;-69
2022/07/04 09:10:43;;;;;;;10.30;4.20;;;;;33.50;97524.20;;;;110537;1253;41622;-69
2022/07/04 09:13:17;;;;;;;9.30;3.60;;;;;34.06;97526.00;;;;110645;1253;41638;-69
2022/07/04 09:15:48;;;;;;;10.50;4.10;;;;;34.22;97520.20;;;;110600;1253;41652;-68
2022/07/04 09:18:28;;;;;;;9.00;3.40;;;;;34.40;97519.60;;;;110459;1253;41727;-69
2022/07/04 09:21:04;;;;;;;6.50;3.00;;;;;34.40;97516.20;;;;110499;1253;41512;-69
2022/07/04 09:23:40;;;;;;;6.70;3.00;;;;;34.82;97515.20;;;;110654;1253;41577;-69
2022/07/04 09:26:14;;;;;;;8.50;3.40;;;;;35.66;97512.40;;;;110571;1253;41150;-69
2022/07/04 09:28:48;;;;;;;9.50;3.50;;;;;36.66;97502.40;;;;110649;1252;41616;-69
2022/07/04 09:31:21;;;;;;;8.30;3.30;;;;;36.64;97491.00;;;;110645;1255;41139;-69
2022/07/04 09:34:03;;;;;;;6.40;2.60;;;;;36.56;97489.60;;;;110489;1256;41203;-69
2022/07/04 09:36:41;;;;;;;9.00;3.00;;;;;37.70;97489.00;;;;110726;1252;41270;-68
2022/07/04 09:39:14;;;;;;;7.70;2.60;;;;;37.08;97484.20;;;;110690;1253;41732;-69
2022/07/04 09:42:00;;;;;;;7.40;3.00;;;;;36.26;97486.80;;;;110739;1252;41350;-69
2022/07/04 09:44:43;;;;;;;8.60;3.50;;;;;35.48;97488.40;;;;110460;1255;41184;-69
2022/07/04 09:47:24;;;;;;;8.50;3.00;;;;;35.94;97481.60;;;;110659;1252;41147;-69
2022/07/04 09:50:11;;;;;;;7.40;2.50;;;;;36.22;97476.20;;;;110695;1253;41951;-69
2022/07/04 09:52:54;;;;;;;6.30;2.70;;;;;37.28;97472.20;;;;110740;1253;41159;-69
2022/07/04 09:55:30;;;;;;;9.50;2.90;;;;;37.90;97476.00;;;;110698;1253;41345;-69
2022/07/04 09:58:01;;;;;;;8.50;3.10;;;;;37.90;97476.80;;;;110655;1252;41139;-69
2022/07/04 10:00:32;;;;;;;8.50;3.10;;;;;37.90;97483.20;;;;110724;1252;41590;-69
2022/07/04 10:03:19;;;;;;;7.80;3.00;;;;;37.38;97480.00;;;;110702;1253;41156;-69
2022/07/04 10:06:06;;;;;;;7.40;2.80;;;;;36.80;97482.40;;;;110543;1253;41953;-69
2022/07/04 10:08:36;;;;;;;6.50;2.80;;;;;36.50;97486.60;;;;110661;1253;42396;-69
2022/07/04 10:11:06;;;;;;;6.30;2.70;;;;;36.50;97481.60;;;;110680;1253;41966;-68
2022/07/04 10:13:38;;;;;;;7.10;2.70;;;;;36.44;97481.20;;;;110619;1253;41153;-69
2022/07/04 10:16:07;;;;;;;;;;;;;36.30;97485.80;;;;110820;1253;41559;-68
2022/07/04 10:18:37;;;;;;;5.60;2.20;;;;;36.20;97485.00;;;;110699;1253;41774;-68
2022/07/04 10:21:06;;;;;;;7.30;2.70;;;;;36.10;97478.40;;;;110402;1253;41366;-69
2022/07/04 10:23:35;;;;;;;7.40;2.50;;;;;36.00;97480.20;;;;110522;1256;42425;-69
2022/07/04 10:26:03;;;;;;;8.20;2.70;;;;;35.90;97482.20;;;;110635;1253;41163;-69
2022/07/04 10:28:32;;;;;;;5.70;2.40;;;;;35.26;97477.60;;;;110715;1253;41273;-69
2022/07/04 10:31:02;;;;;;;6.10;2.50;;;;;35.20;97477.20;;;;110744;1253;41331;-69
2022/07/04 10:33:31;;;;;;;7.40;2.90;;;;;35.20;97475.40;;;;110598;1253;41157;-69
2022/07/04 10:36:05;;;;;;;6.90;2.60;;;;;35.20;97472.60;;;;110531;1256;41176;-69
2022/07/04 10:38:46;;;;;;;6.60;2.50;;;;;35.66;97472.40;;;;110735;1253;42005;-69
2022/07/04 10:41:15;;;;;;;7.40;2.60;;;;;36.20;97472.00;;;;110725;1252;41368;-68
2022/07/04 10:44:09;;;;;;;10.40;3.20;;;;;36.20;97460.00;;;;110661;1253;41193;-68
2022/07/04 10:46:44;;;;;;;7.80;2.70;;;;;36.20;97457.40;;;;110667;1253;41775;-69
2022/07/04 10:49:17;;;;;;;6.50;2.40;;;;;36.08;97457.20;;;;110659;1253;41146;-69
2022/07/04 10:51:48;;;;;;;6.90;2.80;;;;;35.70;97460.60;;;;110691;1251;41450;-68
2022/07/04 10:54:31;;;;;;;7.50;2.70;;;;;35.34;97455.60;;;;110503;1253;41639;-68
2022/07/04 10:57:16;;;;;;;8.50;2.70;;;;;35.18;97442.60;;;;110330;1256;41153;-69
2022/07/04 10:59:54;;;;;;;7.00;2.50;;;;;35.62;97447.40;;;;110665;1253;41265;-70
2022/07/04 11:02:33;;;;;;;6.90;2.50;;;;;36.34;97437.20;;;;110411;1253;41134;-69
2022/07/04 11:05:12;;;;;;;7.40;2.40;;;;;37.14;97437.20;;;;110607;1253;41258;-68
2022/07/04 11:07:41;;;;;;;8.90;2.90;;;;;37.94;97428.80;;;;110492;1253;41258;-68
2022/07/04 11:10:10;;;;;;;7.30;2.80;;;;;38.86;97421.20;;;;110538;1253;42579;-68
2022/07/04 11:12:57;;;;;;;7.70;2.50;;;;;39.22;97414.20;;;;110495;1253;42307;-69
2022/07/04 11:15:32;;;;;;;8.10;2.70;;;;;40.14;97409.20;;;;110544;1253;41306;-68
2022/07/04 11:18:05;;;;;;;5.80;2.30;;;;;40.30;97408.00;;;;110513;1253;41156;-68
2022/07/04 11:20:35;;;;;;;5.00;2.10;;;;;41.40;97401.00;;;;110450;1254;41234;-69
2022/07/04 11:23:21;;;;;;;6.90;2.60;;;;;42.50;97390.40;;;;110620;1253;42239;-68
2022/07/04 11:25:54;;;;;;;7.10;2.50;;;;;42.20;97383.20;;;;110639;1253;41974;-69
2022/07/04 11:28:24;;;;;;;9.60;2.80;;;;;42.20;97387.60;;;;110583;1254;40842;-67
2022/07/04 11:31:11;;;;;;;7.50;2.40;;;;;42.62;97378.80;;;;110491;1253;41194;-68
2022/07/04 11:33:42;;;;;;;8.20;2.70;;;;;42.58;97381.80;;;;110511;1254;41188;-69
2022/07/04 11:36:18;;;;;;;6.10;2.60;;;;;43.30;97382.40;;;;110585;1253;41426;-70
2022/07/04 11:38:56;;;;;;;7.20;2.60;;;;;43.58;97387.80;;;;110298;1256;41829;-69
2022/07/04 11:47:16;;;;;;;3.80;2.00;;;;;42.24;97387.40;;;;110596;1253;41262;-69
2022/07/04 11:49:55;;;;;;;6.10;2.00;;;;;41.60;97396.40;;;;110658;1253;41130;-69
2022/07/04 11:52:41;;;;;;;4.80;2.00;;;;;40.88;97393.60;;;;110419;1255;41156;-69
2022/07/04 11:55:30;;;;;;;5.50;2.30;;;;;40.42;97398.20;;;;110605;1254;41164;-71
2022/07/04 11:57:59;;;;;;;7.50;2.50;;;;;40.00;97402.60;;;;110665;1253;41957;-68
2022/07/04 12:00:32;;;;;;;7.10;2.40;;;;;39.78;97406.40;;;;110564;1253;41150;-68
2022/07/04 12:03:03;;;;;;;5.30;2.20;;;;;39.04;97401.00;;;;110513;1254;41161;-69
2022/07/04 12:05:33;;;;;;;7.40;2.20;;;;;38.60;97403.80;;;;110610;1254;43155;-69
2022/07/04 12:08:05;;;;;;;5.30;2.20;;;;;38.30;97401.60;;;;110634;1253;41137;-70
2022/07/04 12:10:53;;;;;;;6.70;2.50;;;;;37.62;97402.40;;;;110404;1254;42523;-69
2022/07/04 12:13:22;;;;;;;6.80;2.40;;;;;37.40;97404.00;;;;110543;1253;42100;-68
2022/07/04 12:15:53;;;;;;;6.90;2.20;;;;;37.22;97399.80;;;;110641;1253;41488;-70
2022/07/04 12:18:33;;;;;;;6.40;2.40;;;;;37.20;97404.00;;;;110465;1253;41617;-69
2022/07/04 12:21:12;;;;;;;6.30;2.50;;;;;37.02;97408.80;;;;110341;1253;41626;-70
2022/07/04 12:23:52;;;;;;;8.20;3.00;;;;;37.00;97412.40;;;;110468;1253;41277;-70
2022/07/04 12:26:49;;;;;;;6.40;2.50;;;;;37.04;97413.60;;;;110594;1253;41626;-68
2022/07/04 12:29:25;;;;;;;6.20;2.30;;;;;37.02;97406.00;;;;110457;1254;41175;-68
2022/07/04 12:32:03;;;;;;;6.90;2.30;;;;;37.00;97404.20;;;;110696;1252;42095;-68
2022/07/04 12:34:38;;;;;;;6.20;2.40;;;;;37.12;97397.60;;;;110465;1254;41159;-68
2022/07/04 12:37:14;;;;;;;9.60;3.10;;;;;37.30;97396.60;;;;110541;1253;41143;-69
2022/07/04 12:39:44;;;;;;;5.80;2.30;;;;;37.50;97398.00;;;;110778;1251;41754;-68
2022/07/04 12:42:16;;;;;;;5.90;2.20;;;;;37.56;97398.60;;;;110382;1255;41258;-70
2022/07/04 12:44:51;;;;;;;7.00;2.80;;;;;37.36;97398.40;;;;110495;1254;41738;-69
2022/07/04 12:47:22;;;;;;;4.40;2.10;;;;;37.30;97395.40;;;;110550;1254;41167;-69
2022/07/04 12:50:08;;;;;;;6.00;2.40;;;;;37.40;97395.40;;;;110689;1253;41152;-70
2022/07/04 12:52:39;;;;;;;6.50;2.50;;;;;37.46;97390.60;;;;110483;1255;41027;-67